createdAt,value
2023-04-23T00:01:09.197Z,99428.88
2023-04-23T00:06:11.458Z,99428.69
2023-04-23T00:11:13.231Z,99423.84
2023-04-23T00:16:15.873Z,99416.41
2023-04-23T00:21:17.528Z,99406.03
2023-04-23T00:26:19.083Z,99399.63
2023-04-23T00:31:22.543Z,99400.00
2023-04-23T00:36:24.156Z,99398.38
2023-04-23T00:41:27.333Z,99395.56
2023-04-23T00:46:28.967Z,99394.38
2023-04-23T00:51:32.084Z,99388.50
2023-04-23T00:56:33.736Z,99390.13
2023-04-23T01:01:35.623Z,99393.22
2023-04-23T01:06:37.560Z,99397.59
2023-04-23T01:11:40.564Z,99395.59
2023-04-23T01:16:42.565Z,99400.97
2023-04-23T01:21:44.393Z,99397.88
2023-04-23T01:26:46.715Z,99392.63
2023-04-23T01:31:48.540Z,99391.81
2023-04-23T01:36:51.895Z,99398.06
2023-04-23T01:41:53.589Z,99408.19
2023-04-23T01:46:56.585Z,99390.97
2023-04-23T01:51:58.153Z,99392.00
2023-04-23T01:57:00.166Z,99391.38
2023-04-23T02:02:01.857Z,99396.34
2023-04-23T02:07:03.493Z,99391.75
2023-04-23T02:12:05.145Z,99395.47
2023-04-23T02:17:07.080Z,99385.28
2023-04-23T02:22:09.315Z,99391.56
2023-04-23T02:27:10.970Z,99380.72
2023-04-23T02:32:12.674Z,99389.88
2023-04-23T02:37:14.222Z,99389.66
2023-04-23T02:42:16.070Z,99399.59
2023-04-23T02:47:17.696Z,99398.34
2023-04-23T02:52:19.369Z,99390.03
2023-04-23T02:57:21.296Z,99393.78
2023-04-23T03:02:23.185Z,99385.66
2023-04-23T03:07:25.433Z,99389.78
2023-04-23T03:12:27.011Z,99383.69
2023-04-23T03:17:28.623Z,99377.53
2023-04-23T03:22:30.333Z,99368.84
2023-04-23T03:27:32.006Z,99366.38
2023-04-23T03:32:33.644Z,99356.44
2023-04-23T03:37:35.444Z,99351.09
2023-04-23T03:42:38.726Z,99340.50
2023-04-23T03:47:41.027Z,99332.84
2023-04-23T03:52:43.322Z,99321.88
2023-04-23T03:57:52.833Z,99331.63
2023-04-23T04:02:58.136Z,99337.84
2023-04-23T04:08:01.807Z,99339.06
2023-04-23T04:13:04.910Z,99332.69
2023-04-23T04:18:06.867Z,99331.63
2023-04-23T04:23:08.419Z,99334.59
2023-04-23T04:28:11.852Z,99342.47
2023-04-23T04:33:15.081Z,99350.06
2023-04-23T04:38:16.693Z,99352.19
2023-04-23T04:43:18.482Z,99357.00
2023-04-23T04:48:20.673Z,99352.81
2023-04-23T04:53:22.396Z,99364.28
2023-04-23T04:58:23.979Z,99369.09
2023-04-23T05:03:26.239Z,99355.44
2023-04-23T05:08:27.933Z,99367.47
2023-04-23T05:13:29.709Z,99368.09
2023-04-23T05:18:31.291Z,99367.06
2023-04-23T05:23:33.741Z,99376.19
2023-04-23T05:28:35.304Z,99384.75
2023-04-23T05:33:46.758Z,99382.69
2023-04-23T05:38:51.201Z,99393.72
2023-04-23T05:43:52.758Z,99386.44
2023-04-23T05:48:54.373Z,99394.97
2023-04-23T05:53:55.960Z,99391.22
2023-04-23T05:58:57.956Z,99386.84
2023-04-23T06:04:00.147Z,99392.06
2023-04-23T06:09:01.904Z,99386.03
2023-04-23T06:14:03.608Z,99392.28
2023-04-23T06:19:05.212Z,99396.38
2023-04-23T06:24:08.067Z,99390.72
2023-04-23T06:29:09.821Z,99395.66
2023-04-23T06:34:34.025Z,99393.91
2023-04-23T06:39:35.580Z,99399.50
2023-04-23T06:44:37.206Z,99407.13
2023-04-23T06:49:40.354Z,99401.31
2023-04-23T06:54:42.216Z,99402.97
2023-04-23T06:59:43.974Z,99404.34
2023-04-23T07:04:46.906Z,99414.78
2023-04-23T07:09:48.684Z,99407.03
2023-04-23T07:14:53.485Z,99407.22
2023-04-23T07:19:55.093Z,99415.09
2023-04-23T07:24:56.678Z,99415.53
2023-04-23T07:29:58.378Z,99416.75
2023-04-23T07:34:59.979Z,99420.09
2023-04-23T07:40:02.304Z,99416.34
2023-04-23T07:45:05.035Z,99424.59
2023-04-23T07:50:07.493Z,99437.34
2023-04-23T07:55:09.764Z,99425.91
2023-04-23T08:00:12.172Z,99435.22
2023-04-23T08:05:13.714Z,99439.53
2023-04-23T08:10:15.438Z,99432.28
2023-04-23T08:15:17.004Z,99434.09
2023-04-23T08:20:19.652Z,99437.06
2023-04-23T08:25:21.310Z,99439.97
2023-04-23T08:30:23.051Z,99431.13
2023-04-23T08:35:24.870Z,99432.69
2023-04-23T08:40:30.282Z,99442.31
2023-04-23T08:45:31.971Z,99439.19
2023-04-23T08:50:33.727Z,99449.63
2023-04-23T08:55:38.351Z,99459.88
2023-04-23T09:00:40.522Z,99455.78
2023-04-23T09:05:42.362Z,99461.09
2023-04-23T09:10:44.694Z,99465.28
2023-04-23T09:15:46.327Z,99463.56
2023-04-23T09:20:47.999Z,99465.75
2023-04-23T09:25:49.561Z,99473.78
2023-04-23T09:30:51.176Z,99477.78
2023-04-23T09:35:52.773Z,99466.66
2023-04-23T09:40:54.428Z,99467.28
2023-04-23T09:45:56.077Z,99473.13
2023-04-23T09:50:57.648Z,99467.84
2023-04-23T09:55:59.217Z,99468.38
2023-04-23T10:01:10.075Z,99465.31
2023-04-23T10:06:30.640Z,99477.13
2023-04-23T10:11:37.078Z,99468.72
2023-04-23T10:16:48.649Z,99474.75
2023-04-23T10:22:05.396Z,99466.00
2023-04-23T10:32:27.872Z,99468.72
2023-04-23T10:37:29.736Z,99454.50
2023-04-23T10:42:31.855Z,99450.19
2023-04-23T10:47:33.474Z,99452.44
2023-04-23T10:52:35.741Z,99448.69
2023-04-23T10:58:13.154Z,99455.31
2023-04-23T11:03:29.222Z,99457.41
2023-04-23T11:08:34.404Z,99461.84
2023-04-23T11:13:35.979Z,99462.78
2023-04-23T11:18:56.883Z,99463.44
2023-04-23T11:24:02.138Z,99458.38
2023-04-23T11:29:04.305Z,99462.47
2023-04-23T11:34:05.861Z,99471.91
2023-04-23T11:39:08.480Z,99471.00
2023-04-23T11:44:10.095Z,99461.44
2023-04-23T11:49:13.215Z,99457.41
2023-04-23T11:54:15.018Z,99462.34
2023-04-23T11:59:16.745Z,99470.84
2023-04-23T12:04:23.515Z,99463.59
2023-04-23T12:09:27.727Z,99463.53
2023-04-23T12:14:30.829Z,99463.31
2023-04-23T12:19:32.596Z,99468.50
2023-04-23T12:24:48.615Z,99465.16
2023-04-23T12:30:00.057Z,99461.09
2023-04-23T12:35:01.648Z,99462.25
2023-04-23T12:40:07.039Z,99467.56
2023-04-23T12:45:09.883Z,99460.59
2023-04-23T12:50:12.230Z,99450.69
2023-04-23T12:55:13.824Z,99456.31
2023-04-23T13:00:15.729Z,99440.88
2023-04-23T13:05:17.392Z,99434.16
2023-04-23T13:10:19.323Z,99417.00
2023-04-23T13:15:20.887Z,99411.06
2023-04-23T13:20:22.595Z,99410.59
2023-04-23T13:25:24.209Z,99406.56
2023-04-23T13:30:25.779Z,99399.31
2023-04-23T13:35:27.523Z,99385.19
2023-04-23T13:40:29.132Z,99381.84
2023-04-23T13:45:30.812Z,99370.81
2023-04-23T13:50:32.383Z,99365.31
2023-04-23T13:55:33.945Z,99363.53
2023-04-23T14:00:35.530Z,99359.22
2023-04-23T14:05:38.243Z,99358.47
2023-04-23T14:10:42.382Z,99358.63
2023-04-23T14:15:45.238Z,99339.66
2023-04-23T14:20:47.007Z,99341.97
2023-04-23T14:25:53.637Z,99327.59
2023-04-23T14:30:56.632Z,99335.97
2023-04-23T14:35:58.882Z,99327.06
2023-04-23T14:41:00.589Z,99326.00
2023-04-23T14:46:02.200Z,99328.28
2023-04-23T14:51:04.193Z,99321.28
2023-04-23T14:56:06.067Z,99308.50
2023-04-23T15:01:07.795Z,99307.13
2023-04-23T15:06:09.435Z,99304.81
2023-04-23T15:11:13.459Z,99298.25
2023-04-23T15:16:40.450Z,99291.78
2023-04-23T15:21:49.311Z,99283.13
2023-04-23T15:26:53.245Z,99294.44
2023-04-23T15:31:58.014Z,99290.53
2023-04-23T15:36:59.901Z,99287.81
2023-04-23T15:42:02.104Z,99290.16
2023-04-23T15:47:03.693Z,99277.28
2023-04-23T15:52:05.777Z,99278.09
2023-04-23T15:57:07.328Z,99263.13
2023-04-23T16:02:09.011Z,99247.03
2023-04-23T16:07:10.633Z,99256.66
2023-04-23T16:12:12.684Z,99256.34
2023-04-23T16:17:14.277Z,99245.97
2023-04-23T16:22:17.444Z,99236.63
2023-04-23T16:27:19.019Z,99230.16
2023-04-23T16:32:20.821Z,99229.03
2023-04-23T16:37:22.577Z,99219.22
2023-04-23T16:42:24.239Z,99213.66
2023-04-23T16:47:26.709Z,99193.06
2023-04-23T16:52:28.309Z,99195.38
2023-04-23T16:57:30.027Z,99194.66
2023-04-23T17:02:32.386Z,99196.38
2023-04-23T17:07:34.251Z,99179.72
2023-04-23T17:12:35.806Z,99178.25
2023-04-23T17:17:38.243Z,99178.69
2023-04-23T17:22:39.845Z,99175.38
2023-04-23T17:27:41.406Z,99169.16
2023-04-23T17:32:43.089Z,99175.66
2023-04-23T17:37:44.714Z,99164.47
2023-04-23T17:42:46.317Z,99158.41
2023-04-23T17:47:47.934Z,99172.19
2023-04-23T17:52:51.543Z,99163.25
2023-04-23T17:57:53.185Z,99169.50
2023-04-23T18:02:55.089Z,99170.81
2023-04-23T18:07:57.078Z,99176.44
2023-04-23T18:13:01.158Z,99180.84
2023-04-23T18:18:03.363Z,99192.94
2023-04-23T18:23:06.474Z,99193.38
2023-04-23T18:28:08.172Z,99206.91
2023-04-23T18:33:16.564Z,99205.50
2023-04-23T18:38:31.851Z,99199.06
2023-04-23T18:43:34.336Z,99207.75
2023-04-23T18:48:35.869Z,99206.72
2023-04-23T18:53:38.970Z,99215.47
2023-04-23T18:58:40.598Z,99215.06
2023-04-23T19:03:42.858Z,99223.38
2023-04-23T19:08:44.680Z,99224.22
2023-04-23T19:13:46.667Z,99226.25
2023-04-23T19:18:48.385Z,99211.19
2023-04-23T19:23:51.766Z,99207.25
2023-04-23T19:28:53.359Z,99201.84
2023-04-23T19:33:54.941Z,99193.81
2023-04-23T19:38:57.012Z,99188.44
2023-04-23T19:43:58.632Z,99179.53
2023-04-23T19:49:00.222Z,99176.19
2023-04-23T19:54:02.873Z,99173.31
2023-04-23T19:59:07.164Z,99168.72
2023-04-23T20:04:09.243Z,99161.69
2023-04-23T20:09:18.237Z,99150.28
2023-04-23T20:14:20.161Z,99151.31
2023-04-23T20:19:25.703Z,99147.19
2023-04-23T20:24:27.307Z,99146.13
2023-04-23T20:29:30.562Z,99140.75
2023-04-23T20:34:32.107Z,99138.03
2023-04-23T20:39:34.359Z,99128.91
2023-04-23T20:44:36.252Z,99128.31
2023-04-23T20:49:38.905Z,99128.91
2023-04-23T20:54:40.636Z,99114.00
2023-04-23T20:59:42.684Z,99107.97
2023-04-23T21:04:44.700Z,99107.78
2023-04-23T21:09:46.355Z,99111.53
2023-04-23T21:14:47.989Z,99114.41
2023-04-23T21:19:49.760Z,99106.31
2023-04-23T21:24:51.363Z,99115.66
2023-04-23T21:29:53.015Z,99123.09
2023-04-23T21:34:54.588Z,99123.72
2023-04-23T21:39:56.236Z,99115.19
2023-04-23T21:44:57.828Z,99112.72
2023-04-23T21:50:00.267Z,99111.91
2023-04-23T21:55:01.925Z,99107.75
2023-04-23T22:00:06.515Z,99105.25
2023-04-23T22:05:16.939Z,99091.78
2023-04-23T22:10:19.515Z,99089.91
2023-04-23T22:15:21.157Z,99096.75
2023-04-23T22:20:24.476Z,99074.59
2023-04-23T22:25:26.122Z,99064.22
2023-04-23T22:30:27.750Z,99066.69
2023-04-23T22:35:29.365Z,99056.56
2023-04-23T22:40:30.989Z,99051.78
2023-04-23T22:45:32.606Z,99050.53
2023-04-23T22:50:34.182Z,99029.00
2023-04-23T22:55:35.816Z,99017.38
2023-04-23T23:00:37.405Z,99023.59
2023-04-23T23:05:39.540Z,99008.69
2023-04-23T23:10:41.140Z,99003.09
2023-04-23T23:15:42.794Z,99002.06
2023-04-23T23:20:45.212Z,98995.41
2023-04-23T23:25:46.767Z,98992.53
2023-04-23T23:30:49.430Z,98987.56
2023-04-23T23:35:51.271Z,98973.06
2023-04-23T23:40:52.850Z,98971.41
2023-04-23T23:45:54.448Z,98967.28
2023-04-23T23:50:56.049Z,98961.03
2023-04-23T23:55:58.100Z,98962.28
